Time;durP1;ratioP1;P1;durP2;ratioP2;P2;SDS_P1;SDS_P2;PMS_P1;PMS_P2;Temp;Humidity;BMP_temperature;BMP_pressure;BME280_temperature;BME280_humidity;BME280_pressure;Samples;Min_cycle;Max_cycle;Signal;HPM_P1;HPM_P2
2023/02/25 00:02:09;;;;;;;16.03;10.10;;;4.90;99.90;;;4.80;73.44;98014.59;5011304;28;20211;-63
2023/02/25 00:04:39;;;;;;;17.27;9.67;;;4.80;99.90;;;4.81;73.68;98021.38;5010404;28;20294;-62
2023/02/25 00:07:07;;;;;;;20.57;12.33;;;4.90;99.90;;;4.79;73.41;98018.84;5011550;28;20353;-63
2023/02/25 00:09:36;;;;;;;16.07;11.23;;;4.90;99.90;;;4.80;73.97;98019.69;5010072;28;20203;-64
2023/02/25 00:12:05;;;;;;;13.43;9.63;;;4.90;99.90;;;4.82;73.47;98013.69;5006391;28;20235;-64
2023/02/25 00:14:34;;;;;;;15.57;9.80;;;4.90;99.90;;;4.83;73.60;98009.44;5011292;28;20203;-64
2023/02/25 00:17:02;;;;;;;15.63;8.83;;;4.90;99.90;;;4.83;73.05;98005.16;5008133;28;20207;-66
2023/02/25 00:19:32;;;;;;;18.70;9.90;;;4.80;99.90;;;4.84;73.35;98003.44;5013670;28;20721;-64
2023/02/25 00:22:00;;;;;;;14.50;9.33;;;4.90;99.90;;;4.84;72.83;97991.53;5008701;28;20226;-64
2023/02/25 00:24:29;;;;;;;16.37;9.13;;;4.90;99.90;;;4.82;72.85;97988.19;5014380;28;20571;-64
2023/02/25 00:26:57;;;;;;;13.90;9.47;;;4.80;99.90;;;4.81;73.09;97985.66;5014377;28;20636;-65
2023/02/25 00:29:25;;;;;;;17.77;9.67;;;4.80;99.90;;;4.81;72.99;97986.47;5014152;28;20243;-63
2023/02/25 00:31:54;;;;;;;14.93;9.30;;;4.80;99.90;;;4.82;72.85;97985.63;5014772;28;20223;-65
2023/02/25 00:34:22;;;;;;;13.27;9.13;;;4.90;99.90;;;4.81;72.83;97985.66;5014379;28;20294;-63
2023/02/25 00:36:53;;;;;;;14.67;9.30;;;4.90;99.90;;;4.83;73.07;97989.84;5010434;28;20203;-64
2023/02/25 00:39:22;;;;;;;13.90;9.37;;;4.90;99.90;;;4.83;73.27;97983.91;5014227;28;20211;-66
2023/02/25 00:41:52;;;;;;;14.80;9.03;;;4.90;99.90;;;4.83;73.03;97984.75;5013021;28;20219;-63
2023/02/25 00:44:21;;;;;;;16.70;9.27;;;4.90;99.90;;;4.83;73.23;97978.81;5014307;28;20223;-65
2023/02/25 00:46:49;;;;;;;14.23;8.93;;;4.90;99.90;;;4.83;72.81;97969.44;5014131;28;20651;-64
2023/02/25 00:49:17;;;;;;;15.07;8.73;;;4.90;99.90;;;4.84;73.27;97966.00;5014908;28;20325;-62
2023/02/25 00:52:01;;;;;;;16.27;9.17;;;4.90;99.90;;;4.85;73.06;97965.13;5013986;28;20201;-62
2023/02/25 00:54:29;;;;;;;15.93;9.80;;;4.90;99.90;;;4.83;73.03;97959.22;5013326;28;20207;-65
2023/02/25 00:56:58;;;;;;;14.07;8.90;;;4.90;99.90;;;4.84;72.87;97953.25;5013515;28;20364;-64
2023/02/25 00:59:26;;;;;;;13.10;8.30;;;4.90;99.90;;;4.84;72.82;97953.25;5013900;28;20566;-64
2023/02/25 01:01:55;;;;;;;13.63;7.73;;;4.90;99.90;;;4.84;73.13;97945.59;5013743;28;20234;-62
2023/02/25 01:04:24;;;;;;;12.20;7.87;;;4.90;99.90;;;4.84;72.96;97935.38;5014732;28;20226;-63
2023/02/25 01:06:53;;;;;;;13.53;8.17;;;4.90;99.90;;;4.84;72.84;97935.38;5014179;28;20265;-62
2023/02/25 01:09:24;;;;;;;14.07;8.43;;;4.90;99.90;;;4.84;73.12;97940.50;5013982;28;20211;-62
2023/02/25 01:11:53;;;;;;;11.93;8.47;;;5.00;99.90;;;4.83;73.40;97941.38;5002411;28;20203;-62
2023/02/25 01:14:23;;;;;;;14.83;8.57;;;4.90;99.90;;;4.81;73.29;97940.56;5015238;28;20657;-63
2023/02/25 01:16:55;;;;;;;12.57;8.17;;;4.90;99.90;;;4.78;73.59;97935.50;5012160;28;20211;-63
2023/02/25 01:19:25;;;;;;;12.93;8.30;;;4.90;99.90;;;4.75;74.23;97935.63;5013953;28;20211;-63
2023/02/25 01:21:56;;;;;;;12.20;8.20;;;4.90;99.90;;;4.77;74.39;97927.91;5014057;28;20266;-62
2023/02/25 01:24:28;;;;;;;13.53;8.10;;;4.90;99.90;;;4.75;74.35;97924.53;5003351;28;20278;-65
2023/02/25 01:27:01;;;;;;;17.23;8.73;;;4.90;99.90;;;4.72;74.26;97917.81;5009039;28;20195;-65
2023/02/25 01:29:32;;;;;;;15.13;8.40;;;4.90;99.90;;;4.72;74.70;97910.16;5003083;28;20579;-65
2023/02/25 01:32:03;;;;;;;13.60;8.53;;;4.80;99.90;;;4.70;74.89;97909.34;5006412;28;20207;-64
2023/02/25 01:34:32;;;;;;;15.03;8.87;;;4.80;99.90;;;4.69;75.07;97905.13;5008883;28;20200;-63
2023/02/25 01:37:00;;;;;;;14.67;8.97;;;4.80;99.90;;;4.69;75.22;97906.84;5005977;28;20561;-62
2023/02/25 01:39:31;;;;;;;16.00;8.30;;;4.80;99.90;;;4.68;75.69;97898.34;5009730;28;20226;-66
2023/02/25 01:42:02;;;;;;;10.63;7.87;;;4.80;99.90;;;4.64;75.23;97894.19;5011103;28;20223;-66
2023/02/25 01:44:34;;;;;;;13.33;8.30;;;4.70;99.90;;;4.60;75.03;97900.22;5008482;28;20196;-65
2023/02/25 01:47:02;;;;;;;12.03;7.90;;;4.70;99.90;;;4.56;75.96;97889.25;5007777;28;20250;-65
2023/02/25 01:49:37;;;;;;;11.43;7.77;;;4.60;99.90;;;4.57;75.71;97885.84;5003283;28;20259;-65
2023/02/25 01:52:13;;;;;;;12.37;7.43;;;4.70;99.90;;;4.53;75.65;97884.22;5010497;28;20231;-65
2023/02/25 01:54:45;;;;;;;10.93;7.47;;;4.60;99.90;;;4.54;75.53;97879.97;5012961;28;20277;-63
2023/02/25 01:57:17;;;;;;;13.27;7.37;;;4.60;99.90;;;4.53;76.21;97885.94;5011266;28;20250;-65
2023/02/25 01:59:48;;;;;;;10.30;6.63;;;4.60;99.90;;;4.49;76.34;97881.75;5010266;28;20203;-65
2023/02/25 02:02:21;;;;;;;11.40;7.17;;;4.60;99.90;;;4.46;76.36;97867.38;5012626;28;20651;-66
2023/02/25 02:04:53;;;;;;;11.00;7.80;;;4.60;99.90;;;4.41;76.06;97865.78;5011149;28;20208;-66
2023/02/25 02:07:23;;;;;;;10.10;7.17;;;4.50;99.90;;;4.38;76.77;97853.13;5010470;28;20718;-66
2023/02/25 02:09:55;;;;;;;10.50;7.30;;;4.50;99.90;;;4.38;76.88;97848.00;5013232;28;20207;-65
2023/02/25 02:12:26;;;;;;;14.83;7.63;;;4.50;99.90;;;4.36;77.17;97840.41;5012283;28;20621;-66
2023/02/25 02:14:56;;;;;;;12.10;7.37;;;4.40;99.90;;;4.35;76.71;97852.31;5013006;28;20207;-66
2023/02/25 02:17:32;;;;;;;12.20;7.57;;;4.40;99.90;;;4.33;77.47;97845.56;5007498;28;20238;-66
2023/02/25 02:20:15;;;;;;;11.90;8.20;;;4.40;99.90;;;4.32;77.33;97844.75;5019343;28;20249;-65
2023/02/25 02:22:59;;;;;;;12.83;8.17;;;4.40;99.90;;;4.33;77.61;97840.47;5011087;28;20252;-65
2023/02/25 02:26:07;;;;;;;13.17;7.70;;;4.40;99.90;;;4.29;77.46;97824.41;5005812;28;20203;-67
2023/02/25 02:29:29;;;;;;;14.73;8.53;;;4.40;99.90;;;4.29;77.44;97823.56;5004436;28;20219;-64
2023/02/25 02:32:14;;;;;;;12.20;7.30;;;4.40;99.90;;;4.28;77.29;97822.75;4996003;28;20207;-65
2023/02/25 02:34:53;;;;;;;17.17;7.83;;;4.40;99.90;;;4.29;77.50;97826.13;5009249;28;20243;-64
2023/02/25 02:37:35;;;;;;;11.90;8.03;;;4.40;99.90;;;4.27;77.67;97821.06;5008873;28;20207;-66
2023/02/25 02:40:19;;;;;;;16.13;7.37;;;4.50;99.90;;;4.30;78.05;97820.16;5008318;28;20723;-64
2023/02/25 02:43:01;;;;;;;14.07;8.10;;;4.40;99.90;;;4.29;78.41;97814.22;5011665;28;20261;-65
2023/02/25 02:45:39;;;;;;;14.20;8.37;;;4.40;99.90;;;4.25;77.92;97810.06;5011058;28;20609;-67
2023/02/25 02:48:15;;;;;;;11.67;7.80;;;4.30;99.90;;;4.25;78.49;97799.88;5002533;28;20289;-65
2023/02/25 02:50:46;;;;;;;12.73;7.93;;;4.40;99.90;;;4.26;77.70;97798.97;5002379;28;20206;-65
2023/02/25 02:53:24;;;;;;;13.13;8.37;;;4.30;99.90;;;4.23;78.18;97793.13;5009912;28;20254;-64
2023/02/25 02:55:56;;;;;;;12.60;7.83;;;4.30;99.90;;;4.21;78.12;97790.63;5006297;28;20644;-66
2023/02/25 02:58:29;;;;;;;12.43;7.73;;;4.30;99.90;;;4.19;77.92;97789.78;5003944;28;20203;-67
2023/02/25 03:01:04;;;;;;;12.67;7.97;;;4.30;99.90;;;4.18;78.20;97787.28;5011352;28;20196;-67
2023/02/25 03:03:40;;;;;;;13.57;7.83;;;4.30;99.90;;;4.18;78.13;97789.84;5009930;28;20216;-65
2023/02/25 03:06:13;;;;;;;13.00;8.20;;;4.30;99.90;;;4.17;78.50;97783.91;5008927;28;20199;-68
2023/02/25 03:08:46;;;;;;;13.47;8.63;;;4.30;99.90;;;4.16;78.53;97783.94;5010349;28;20277;-66
2023/02/25 03:11:15;;;;;;;12.27;8.17;;;4.30;99.90;;;4.16;78.17;97791.56;5010737;28;20261;-65
2023/02/25 03:13:44;;;;;;;15.13;8.80;;;4.30;99.90;;;4.17;78.44;97790.72;5005671;28;20200;-65
2023/02/25 03:16:21;;;;;;;13.70;8.53;;;4.30;99.90;;;4.13;77.92;97779.75;5011527;28;20207;-66
2023/02/25 03:18:57;;;;;;;13.17;8.40;;;4.30;99.90;;;4.12;78.33;97783.16;5010022;28;20269;-66
2023/02/25 03:21:31;;;;;;;15.00;9.10;;;4.30;99.90;;;4.11;78.40;97786.59;5006130;28;20543;-65
2023/02/25 03:24:02;;;;;;;11.67;8.77;;;4.30;99.90;;;4.11;78.86;97778.94;5002022;28;20786;-65
2023/02/25 03:26:33;;;;;;;13.87;9.33;;;4.20;99.90;;;4.10;78.34;97777.28;5009604;28;20208;-64
2023/02/25 03:29:02;;;;;;;15.77;9.57;;;4.30;99.90;;;4.09;78.49;97776.44;5010210;28;20230;-66
2023/02/25 03:31:35;;;;;;;12.47;9.00;;;4.20;99.90;;;4.09;78.88;97781.53;5008620;28;20215;-66
2023/02/25 03:34:10;;;;;;;10.73;8.40;;;4.30;99.90;;;4.08;78.93;97776.44;5011412;28;20723;-66
2023/02/25 03:36:42;;;;;;;12.27;8.70;;;4.20;99.90;;;4.05;78.82;97772.28;5008598;28;20515;-64
2023/02/25 03:39:15;;;;;;;12.87;8.50;;;4.20;99.90;;;4.00;78.94;97770.69;5009399;28;20632;-65
2023/02/25 03:41:50;;;;;;;11.33;7.53;;;4.20;99.90;;;3.98;78.36;97778.38;5011035;28;20258;-63
2023/02/25 03:44:25;;;;;;;13.20;8.80;;;4.10;99.90;;;3.94;78.55;97775.91;5010152;28;20234;-65
2023/02/25 03:46:54;;;;;;;10.87;8.33;;;4.10;99.90;;;3.86;78.37;97779.47;5001509;28;20234;-65
2023/02/25 03:49:32;;;;;;;10.40;7.40;;;4.00;99.90;;;3.80;78.56;97784.69;5009612;28;20239;-65
2023/02/25 03:52:06;;;;;;;12.07;8.20;;;3.90;99.90;;;3.74;78.52;97784.81;5011636;28;20203;-63
2023/02/25 03:54:34;;;;;;;12.00;7.63;;;3.90;99.90;;;3.69;78.53;97794.28;5004901;28;20207;-65
2023/02/25 03:57:03;;;;;;;12.43;8.13;;;3.80;99.90;;;3.64;78.20;97793.50;5013908;28;20350;-65
2023/02/25 03:59:31;;;;;;;12.03;8.17;;;3.80;99.90;;;3.60;78.56;97790.19;5005386;28;20207;-66
2023/02/25 04:02:01;;;;;;;11.30;8.07;;;3.70;99.90;;;3.55;78.59;97780.97;5013186;28;20211;-64
2023/02/25 04:04:31;;;;;;;11.73;7.77;;;3.70;99.90;;;3.53;78.80;97780.16;4999578;28;20238;-66
2023/02/25 04:07:00;;;;;;;10.70;7.63;;;3.70;99.90;;;3.50;78.47;97780.22;5009159;28;20221;-63
2023/02/25 04:09:28;;;;;;;11.27;7.93;;;3.60;99.90;;;3.46;78.76;97779.47;5013947;28;20250;-64
2023/02/25 04:11:57;;;;;;;11.67;7.43;;;3.60;99.90;;;3.45;79.28;97787.09;5014038;28;20676;-67
2023/02/25 04:14:25;;;;;;;9.73;7.53;;;3.60;99.90;;;3.41;79.50;97791.41;5001482;28;20196;-65
2023/02/25 04:16:54;;;;;;;9.80;7.17;;;3.50;99.90;;;3.38;78.43;97797.41;5014743;28;20203;-66
2023/02/25 04:19:22;;;;;;;11.67;8.33;;;3.50;99.90;;;3.30;78.42;97789.06;5011518;28;20269;-64
2023/02/25 04:21:52;;;;;;;12.47;7.70;;;3.40;99.90;;;3.26;79.20;97789.16;5007377;28;20216;-67
2023/02/25 04:24:22;;;;;;;10.43;7.87;;;3.40;99.90;;;3.21;78.98;97789.25;5003670;28;20649;-66
2023/02/25 04:26:57;;;;;;;9.70;7.20;;;3.30;99.90;;;3.19;79.92;97795.25;5010662;28;20288;-66
2023/02/25 04:29:26;;;;;;;10.27;7.60;;;3.30;99.90;;;3.16;79.93;97791.03;5011690;28;20261;-66
2023/02/25 04:31:54;;;;;;;13.80;8.17;;;3.30;99.90;;;3.12;79.61;97802.13;5014954;28;20207;-65
2023/02/25 04:34:24;;;;;;;11.73;8.53;;;3.30;99.90;;;3.12;80.53;97794.50;5013488;28;20216;-65
2023/02/25 04:36:54;;;;;;;11.37;8.37;;;3.30;99.90;;;3.08;79.96;97793.72;5012776;28;20211;-65
2023/02/25 04:39:22;;;;;;;10.03;7.37;;;3.30;99.90;;;3.04;80.12;97796.34;5011631;28;20273;-63
2023/02/25 04:41:50;;;;;;;10.27;7.57;;;3.20;99.90;;;2.99;79.34;97803.22;5009679;28;20529;-64
2023/02/25 04:44:19;;;;;;;9.80;7.67;;;3.10;99.90;;;2.95;79.93;97796.53;5012583;28;20234;-66
2023/02/25 04:46:50;;;;;;;12.70;8.00;;;3.10;99.90;;;2.90;79.51;97797.41;5010562;28;20626;-65
2023/02/25 04:49:21;;;;;;;11.90;8.50;;;3.00;99.90;;;2.88;80.05;97796.63;5009202;28;20235;-66
2023/02/25 04:51:50;;;;;;;11.00;8.37;;;3.10;99.90;;;2.84;79.98;97784.81;5012919;28;20207;-65
2023/02/25 04:54:21;;;;;;;12.80;8.50;;;3.00;99.90;;;2.83;80.39;97788.22;5006475;28;20211;-65
2023/02/25 04:56:49;;;;;;;12.70;8.00;;;3.00;99.90;;;2.83;80.07;97785.66;5010015;28;20199;-65
2023/02/25 04:59:18;;;;;;;11.07;8.50;;;3.00;99.90;;;2.81;81.06;97774.69;5013428;28;20208;-66
2023/02/25 05:01:47;;;;;;;11.83;7.93;;;3.00;99.90;;;2.78;80.28;97773.91;5006936;28;20211;-66
2023/02/25 05:04:15;;;;;;;12.67;7.90;;;3.00;99.90;;;2.79;81.23;97786.59;5011787;28;20233;-65
2023/02/25 05:06:44;;;;;;;10.10;7.70;;;3.00;99.90;;;2.79;80.66;97783.22;5009033;28;20234;-65
2023/02/25 05:09:12;;;;;;;9.50;7.73;;;3.00;99.90;;;2.78;80.58;97774.75;5012221;28;20238;-65
2023/02/25 05:11:42;;;;;;;10.57;8.03;;;2.90;99.90;;;2.75;80.74;97774.78;5014915;28;20261;-66
2023/02/25 05:14:10;;;;;;;11.50;8.10;;;2.90;99.90;;;2.77;81.37;97772.25;5004329;28;20200;-66
2023/02/25 05:16:39;;;;;;;10.23;8.00;;;2.90;99.90;;;2.75;80.88;97774.78;5005687;28;20208;-67
2023/02/25 05:19:08;;;;;;;10.77;8.13;;;2.90;99.90;;;2.72;81.18;97779.09;5004535;28;20230;-66
2023/02/25 05:21:36;;;;;;;12.07;8.93;;;2.90;99.90;;;2.70;81.13;97774.03;5008798;28;20212;-67
2023/02/25 05:24:06;;;;;;;10.27;7.73;;;2.90;99.90;;;2.72;81.42;97774.00;5010605;28;20246;-64
2023/02/25 05:26:34;;;;;;;11.20;8.67;;;2.90;99.90;;;2.73;81.54;97776.53;5009230;28;20203;-66
2023/02/25 05:29:04;;;;;;;11.37;8.33;;;2.90;99.90;;;2.73;81.79;97779.09;5014142;28;20638;-66
2023/02/25 05:31:33;;;;;;;10.27;7.93;;;2.90;99.90;;;2.75;81.20;97782.41;5007081;28;20541;-64
2023/02/25 05:34:02;;;;;;;12.13;8.27;;;2.90;99.90;;;2.75;81.47;97784.13;5005224;28;20294;-65
2023/02/25 05:36:31;;;;;;;11.47;8.63;;;3.00;99.90;;;2.76;82.13;97785.78;5012813;28;20281;-66
2023/02/25 05:39:01;;;;;;;10.00;8.13;;;3.00;99.90;;;2.76;81.69;97789.22;5012751;28;20227;-65
2023/02/25 05:41:30;;;;;;;10.67;7.53;;;3.00;99.90;;;2.76;81.73;97786.66;5006730;28;20243;-64
2023/02/25 05:43:59;;;;;;;10.30;8.20;;;2.90;99.90;;;2.74;82.28;97788.38;5004158;28;20237;-65
2023/02/25 05:46:29;;;;;;;9.57;7.57;;;3.00;99.90;;;2.75;81.31;97792.59;5009965;28;20220;-65
2023/02/25 05:48:57;;;;;;;9.60;7.33;;;3.00;99.90;;;2.76;81.36;97790.88;5007774;28;20615;-67
2023/02/25 05:51:26;;;;;;;9.37;7.87;;;2.90;99.90;;;2.74;81.90;97787.53;5009052;28;20215;-66
2023/02/25 05:53:56;;;;;;;8.87;7.73;;;2.90;99.90;;;2.75;81.56;97790.03;5011809;28;20614;-66
2023/02/25 05:56:26;;;;;;;8.63;7.07;;;2.90;99.90;;;2.73;81.81;97788.41;5009093;28;20227;-66
2023/02/25 05:58:59;;;;;;;8.97;6.97;;;2.90;99.90;;;2.74;81.74;97797.72;5011516;28;20249;-67
2023/02/25 06:01:31;;;;;;;9.60;7.53;;;2.90;99.90;;;2.72;80.93;97800.25;5005190;28;20265;-67
2023/02/25 06:04:00;;;;;;;8.93;7.50;;;2.90;99.90;;;2.71;81.80;97801.13;5013528;28;20200;-66
2023/02/25 06:06:31;;;;;;;9.47;7.47;;;2.90;99.90;;;2.73;81.49;97796.88;5009794;28;20207;-68
2023/02/25 06:09:00;;;;;;;9.77;7.87;;;2.90;99.90;;;2.73;81.15;97796.88;5008398;28;20671;-69
2023/02/25 06:11:30;;;;;;;10.00;7.47;;;2.90;99.90;;;2.73;81.66;97801.97;5013095;28;20261;-70
2023/02/25 06:14:00;;;;;;;10.50;8.30;;;2.90;99.90;;;2.74;81.50;97795.16;5013431;28;20234;-70
2023/02/25 06:16:31;;;;;;;12.97;8.80;;;2.90;99.90;;;2.74;81.61;97803.63;5003658;28;20250;-71
2023/02/25 06:19:01;;;;;;;9.73;8.33;;;2.90;99.90;;;2.75;81.67;97800.22;5001200;28;20200;-69
2023/02/25 06:21:30;;;;;;;10.27;8.23;;;2.90;99.90;;;2.78;81.15;97799.34;5004269;28;20228;-67
2023/02/25 06:24:00;;;;;;;12.67;8.67;;;2.90;99.90;;;2.78;81.56;97797.63;5016872;28;20265;-65
2023/02/25 06:26:29;;;;;;;10.87;8.40;;;3.00;99.90;;;2.79;81.35;97799.31;5013095;28;20204;-62
2023/02/25 06:28:57;;;;;;;11.50;8.90;;;2.90;99.90;;;2.78;81.79;97790.00;5012084;28;20293;-63
2023/02/25 06:31:29;;;;;;;13.90;9.20;;;3.00;99.90;;;2.77;81.43;97784.97;5009874;28;20254;-69
2023/02/25 06:33:58;;;;;;;10.97;8.53;;;3.00;99.90;;;2.80;81.25;97793.38;5008909;28;20207;-66
2023/02/25 06:36:27;;;;;;;11.97;8.60;;;3.00;99.90;;;2.83;82.26;97798.38;5012838;28;20536;-65
2023/02/25 06:38:56;;;;;;;16.27;9.77;;;3.00;99.90;;;2.85;81.91;97799.22;5012967;28;20211;-64
2023/02/25 06:41:27;;;;;;;12.87;9.10;;;3.10;99.90;;;2.87;82.07;97794.94;5012413;28;20265;-66
2023/02/25 06:43:55;;;;;;;13.20;9.87;;;3.00;99.90;;;2.88;81.27;97791.53;5013499;28;20215;-65
2023/02/25 06:46:26;;;;;;;14.67;10.10;;;3.10;99.90;;;2.89;81.39;97793.19;5013610;28;20223;-64
2023/02/25 06:48:56;;;;;;;14.73;9.90;;;3.10;99.90;;;2.93;81.77;97798.25;5011333;28;20231;-65
2023/02/25 06:51:26;;;;;;;15.53;9.87;;;3.10;99.90;;;2.92;81.87;97796.56;5001413;28;20286;-66
2023/02/25 06:53:54;;;;;;;12.50;9.40;;;3.10;99.90;;;2.92;81.21;97792.31;5002223;28;20207;-66
2023/02/25 06:56:23;;;;;;;15.17;9.67;;;3.10;99.90;;;2.93;82.12;97795.69;5012962;28;20695;-65
2023/02/25 06:58:52;;;;;;;13.43;9.53;;;3.10;99.90;;;2.94;81.47;97790.56;5012164;28;20611;-64
2023/02/25 07:01:21;;;;;;;16.03;9.93;;;3.10;99.90;;;2.96;82.46;97798.19;5003984;28;20245;-66
2023/02/25 07:03:49;;;;;;;13.20;9.27;;;3.10;99.90;;;2.98;82.60;97799.81;5001362;28;20669;-72
2023/02/25 07:06:18;;;;;;;15.10;9.93;;;3.20;99.90;;;2.99;82.03;97793.91;5015461;28;20238;-65
2023/02/25 07:08:49;;;;;;;17.00;10.17;;;3.20;99.90;;;3.03;82.27;97795.50;5002874;28;20204;-71
2023/02/25 07:11:30;;;;;;;13.30;10.20;;;3.20;99.90;;;3.06;81.77;97795.47;5006162;28;20200;-65
2023/02/25 07:13:59;;;;;;;16.90;10.90;;;3.20;99.90;;;3.06;82.34;97795.47;5014082;28;20250;-63
2023/02/25 07:16:28;;;;;;;15.80;10.07;;;3.30;99.90;;;3.06;81.59;97802.25;5014264;28;20234;-63
2023/02/25 07:19:01;;;;;;;16.80;10.63;;;3.30;99.90;;;3.07;82.50;97796.31;5010577;28;20785;-62
2023/02/25 07:21:30;;;;;;;14.10;10.13;;;3.20;99.90;;;3.09;82.73;97797.97;5006181;28;20203;-64
2023/02/25 07:24:00;;;;;;;14.47;10.77;;;3.30;99.90;;;3.13;81.70;97793.66;5013382;28;20310;-63
2023/02/25 07:26:29;;;;;;;16.57;10.83;;;3.30;99.90;;;3.17;82.14;97794.41;5010755;28;20270;-63
2023/02/25 07:28:58;;;;;;;15.47;10.53;;;3.40;99.90;;;3.15;81.95;97789.38;5011625;28;20238;-62
2023/02/25 07:31:28;;;;;;;15.23;10.67;;;3.40;99.90;;;3.16;81.66;97796.13;5012365;28;20266;-63
2023/02/25 07:34:02;;;;;;;16.07;11.60;;;3.30;99.90;;;3.16;82.50;97796.13;5013326;28;20207;-64
2023/02/25 07:36:32;;;;;;;16.03;11.17;;;3.30;99.90;;;3.19;82.66;97795.25;5013143;28;20203;-64
2023/02/25 07:39:03;;;;;;;18.07;11.43;;;3.40;99.90;;;3.21;82.22;97790.97;5009981;28;20211;-64
2023/02/25 07:41:31;;;;;;;15.83;11.43;;;3.40;99.90;;;3.24;81.57;97796.84;5011382;28;20253;-63
2023/02/25 07:43:59;;;;;;;16.60;11.23;;;3.40;99.90;;;3.29;81.73;97795.03;5010756;28;20207;-64
2023/02/25 07:46:40;;;;;;;15.53;11.13;;;3.50;99.90;;;3.32;81.85;97794.16;5013694;28;20645;-64
2023/02/25 07:49:19;;;;;;;17.03;11.50;;;3.50;99.90;;;3.33;81.78;97789.03;5009711;28;20642;-63
2023/02/25 07:51:50;;;;;;;17.27;11.13;;;3.50;99.90;;;3.33;81.70;97789.03;5010866;28;20253;-63
2023/02/25 07:54:22;;;;;;;14.50;10.93;;;3.50;99.90;;;3.36;82.04;97783.88;5008562;28;20641;-63
2023/02/25 07:56:51;;;;;;;16.70;11.20;;;3.50;99.90;;;3.41;81.71;97786.31;5011451;28;20240;-65
2023/02/25 07:59:21;;;;;;;16.70;11.13;;;3.60;99.90;;;3.46;81.23;97788.78;5009999;28;20211;-62
2023/02/25 08:01:49;;;;;;;15.00;10.90;;;3.60;99.90;;;3.49;81.84;97783.63;5002769;28;20660;-64
2023/02/25 08:04:18;;;;;;;15.83;11.43;;;3.70;99.90;;;3.50;81.73;97791.25;4995196;28;20209;-65
2023/02/25 08:06:47;;;;;;;14.07;10.50;;;3.70;99.90;;;3.52;81.21;97789.50;5012134;28;21051;-64
2023/02/25 08:09:15;;;;;;;15.00;10.17;;;3.80;99.90;;;3.55;81.55;97784.34;5010825;28;20210;-63
2023/02/25 08:11:45;;;;;;;13.67;10.70;;;3.70;99.90;;;3.58;80.48;97791.09;5011514;28;20262;-65
2023/02/25 08:14:14;;;;;;;15.03;10.60;;;3.80;99.90;;;3.59;81.42;97797.88;5014570;28;20203;-77
2023/02/25 08:16:42;;;;;;;13.93;10.13;;;3.80;99.90;;;3.59;80.55;97795.31;5008115;28;20265;-64
2023/02/25 08:19:11;;;;;;;14.40;10.27;;;3.80;99.90;;;3.61;80.23;97796.13;5005507;28;20503;-62
2023/02/25 08:21:40;;;;;;;16.10;10.90;;;3.80;99.90;;;3.62;80.44;97791.00;5006832;28;20250;-62
2023/02/25 08:24:09;;;;;;;13.50;10.17;;;3.80;99.90;;;3.68;80.99;97789.19;5008040;28;20668;-64
2023/02/25 08:26:37;;;;;;;13.27;10.07;;;3.90;99.90;;;3.75;80.42;97795.84;5010324;28;20227;-64
2023/02/25 08:29:07;;;;;;;11.83;9.17;;;3.90;99.90;;;3.78;80.18;97793.22;5001008;28;20633;-66
2023/02/25 08:31:37;;;;;;;12.33;9.80;;;3.90;99.90;;;3.79;80.33;97790.69;5009955;28;20238;-75
2023/02/25 08:34:06;;;;;;;12.97;9.20;;;4.00;99.90;;;3.79;79.79;97789.81;5013627;28;20581;-66
2023/02/25 08:36:35;;;;;;;12.30;9.07;;;4.00;99.90;;;3.82;80.31;97785.50;4998580;28;20204;-65
2023/02/25 08:39:04;;;;;;;13.70;9.13;;;4.00;99.90;;;3.83;79.39;97791.44;5011198;28;20211;-64
2023/02/25 08:41:33;;;;;;;11.60;9.10;;;4.00;99.90;;;3.83;80.16;97787.19;5012800;28;20211;-64
2023/02/25 08:44:07;;;;;;;13.20;9.67;;;4.00;99.90;;;3.84;80.04;97776.13;5009069;28;20203;-65
2023/02/25 08:46:36;;;;;;;12.83;9.27;;;4.10;99.90;;;3.91;79.83;97787.03;5008384;28;20261;-66
2023/02/25 08:49:06;;;;;;;14.43;9.80;;;4.10;99.90;;;3.96;79.52;97785.22;5007244;28;20235;-67
2023/02/25 08:51:35;;;;;;;11.67;8.67;;;4.20;99.90;;;4.02;79.66;97789.34;5008954;28;20216;-65
2023/02/25 08:54:06;;;;;;;13.53;9.10;;;4.20;99.90;;;4.10;79.87;97782.38;5007379;28;20204;-67
2023/02/25 08:56:43;;;;;;;12.27;9.37;;;4.30;99.90;;;4.18;78.81;97777.09;5009225;28;20300;-65
2023/02/25 08:59:19;;;;;;;12.43;8.83;;;4.40;99.90;;;4.25;79.04;97787.13;5013275;28;20206;-65
2023/02/25 09:01:51;;;;;;;12.93;9.10;;;4.40;99.90;;;4.27;78.40;97784.53;5013893;28;20207;-70
2023/02/25 09:04:27;;;;;;;12.83;9.10;;;4.40;99.90;;;4.31;78.77;97781.88;5006781;28;20693;-73
2023/02/25 09:06:58;;;;;;;11.83;8.40;;;4.50;99.90;;;4.33;78.49;97780.13;5005814;28;20216;-68
2023/02/25 09:09:27;;;;;;;15.17;10.40;;;4.50;99.90;;;4.38;77.52;97786.81;5009697;28;20262;-67
2023/02/25 09:11:56;;;;;;;12.33;9.70;;;4.50;99.90;;;4.38;77.26;97781.72;5014630;28;20203;-70
2023/02/25 09:14:26;;;;;;;14.57;10.60;;;4.60;99.90;;;4.43;77.74;97777.38;5007111;28;20212;-70
2023/02/25 09:16:54;;;;;;;15.13;9.43;;;4.60;99.90;;;4.49;77.76;97774.66;5004496;28;20261;-66
2023/02/25 09:19:23;;;;;;;14.20;9.73;;;4.70;99.90;;;4.55;77.82;97779.63;5009727;28;20458;-71
2023/02/25 09:21:51;;;;;;;13.47;10.30;;;4.70;99.90;;;4.59;77.33;97778.69;5001391;28;21310;-71
2023/02/25 09:24:20;;;;;;;12.20;9.67;;;4.70;99.90;;;4.62;77.18;97763.31;5007165;28;20287;-77
2023/02/25 09:26:48;;;;;;;13.27;9.83;;;4.80;99.90;;;4.65;76.98;97767.50;5008559;28;20231;-75
2023/02/25 09:29:17;;;;;;;12.97;9.43;;;4.80;99.90;;;4.69;76.51;97766.56;5013077;28;20250;-74
2023/02/25 09:31:47;;;;;;;11.07;9.33;;;4.80;99.90;;;4.67;76.01;97768.28;5007363;28;20261;-72
2023/02/25 09:34:15;;;;;;;13.63;10.00;;;4.80;99.90;;;4.68;76.14;97765.72;5000226;28;20208;-73
2023/02/25 09:36:44;;;;;;;12.43;9.40;;;4.90;99.90;;;4.71;75.94;97762.22;5003582;28;20198;-71
2023/02/25 09:39:13;;;;;;;13.20;9.67;;;4.90;99.90;;;4.74;76.21;97768.09;5008926;28;20204;-68
2023/02/25 09:41:49;;;;;;;11.57;8.93;;;5.00;99.90;;;4.78;75.46;97767.16;5008499;28;20211;-71
2023/02/25 09:44:22;;;;;;;11.00;8.33;;;5.00;99.90;;;4.81;75.20;97767.06;5008028;28;20571;-71
2023/02/25 09:47:00;;;;;;;13.70;8.93;;;5.00;99.90;;;4.86;75.34;97759.31;5003251;28;20420;-73
2023/02/25 09:49:36;;;;;;;11.87;8.27;;;5.10;99.90;;;5.02;75.52;97759.75;5108550;23;20265;-72
2023/02/25 09:52:13;;;;;;;11.97;7.70;;;5.20;99.90;;;5.31;74.76;97762.38;5050343;28;20277;-73
2023/02/25 09:54:45;;;;;;;9.47;7.07;;;5.60;99.90;;;6.18;75.18;97756.47;5049984;28;20202;-73
2023/02/25 09:57:20;;;;;;;9.03;7.07;;;6.40;99.90;;;6.76;71.39;97749.50;5053244;28;20210;-74
2023/02/25 09:59:52;;;;;;;7.53;6.37;;;6.80;99.90;;;6.80;69.78;97750.25;5048625;28;20658;-77
2023/02/25 10:02:32;;;;;;;7.97;5.60;;;6.90;99.90;;;6.71;68.22;97751.38;5043960;28;20307;-76
2023/02/25 10:05:20;;;;;;;7.93;5.00;;;6.80;99.90;;;6.63;67.75;97743.13;5042470;28;20209;-76
2023/02/25 10:08:07;;;;;;;9.80;5.30;;;6.80;99.90;;;7.33;69.53;97749.28;5045614;28;20222;-76
2023/02/25 10:10:49;;;;;;;6.13;4.57;;;7.50;99.90;;;8.21;65.88;97734.88;5041340;28;20210;-79
2023/02/25 10:13:32;;;;;;;3.73;3.33;;;8.30;99.90;;;8.67;62.46;97751.88;5048964;28;20207;-77
2023/02/25 10:16:14;;;;;;;5.60;3.50;;;8.60;99.90;;;8.78;59.07;97745.50;5055847;28;20256;-75
2023/02/25 10:19:00;;;;;;;8.30;3.50;;;8.70;99.90;;;8.60;59.53;97740.19;5043089;28;20223;-70
2023/02/25 10:24:52;;;;;;;4.73;3.83;;;8.40;99.90;;;7.92;59.90;97743.72;5054477;28;20281;-72
2023/02/25 10:27:27;;;;;;;4.03;3.20;;;8.00;99.90;;;7.60;60.72;97748.31;5051769;28;20220;-73
2023/02/25 10:30:03;;;;;;;5.40;3.30;;;7.80;99.90;;;7.28;60.87;97746.06;5041262;28;20271;-73
2023/02/25 10:32:40;;;;;;;3.10;1.37;;;7.40;99.90;;;6.86;62.04;97764.56;5054123;28;20205;-76
2023/02/25 10:35:21;;;;;;;1.90;1.70;;;6.90;99.90;;;6.30;63.66;97775.75;5056837;28;20213;-75
2023/02/25 10:37:50;;;;;;;1.63;0.73;;;6.50;99.90;;;5.84;65.17;97792.41;5048413;28;20595;-76
2023/02/25 10:40:22;;;;;;;1.37;1.07;;;6.00;99.90;;;5.37;66.54;97784.34;5051234;28;20210;-73
2023/02/25 10:42:54;;;;;;;2.00;1.20;;;5.60;99.90;;;5.00;67.70;97787.84;5054384;28;20203;-79
2023/02/25 10:45:27;;;;;;;1.63;0.80;;;5.20;99.90;;;4.70;69.00;97778.41;5053673;28;20202;-77
2023/02/25 10:48:06;;;;;;;1.23;1.00;;;5.00;99.90;;;4.53;70.19;97776.28;5064382;28;20206;-72